sensor_id;sensor_type;location;lat;lon;timestamp;pressure;altitude;pressure_sealevel;temperature
22269;BMP280;11303;50.772;19.670;2023-08-06T10:16:31;97537.13;;;19.34
22269;BMP280;11303;50.772;19.670;2023-08-06T10:18:36;97295.34;;;19.29
22269;BMP280;11303;50.772;19.670;2023-08-06T10:20:39;97328.13;;;19.28
22269;BMP280;11303;50.772;19.670;2023-08-06T10:22:44;97310.84;;;19.17
22269;BMP280;11303;50.772;19.670;2023-08-06T10:24:54;97262.97;;;19.10
22269;BMP280;11303;50.772;19.670;2023-08-06T10:26:58;97250.06;;;19.02
22269;BMP280;11303;50.772;19.670;2023-08-06T10:29:00;97230.94;;;19.11
22269;BMP280;11303;50.772;19.670;2023-08-06T10:31:01;97238.69;;;19.24
22269;BMP280;11303;50.772;19.670;2023-08-06T10:33:04;97250.69;;;19.16
22269;BMP280;11303;50.772;19.670;2023-08-06T10:35:06;97220.22;;;18.96
22269;BMP280;11303;50.772;19.670;2023-08-06T10:37:14;97199.56;;;18.95
22269;BMP280;11303;50.772;19.670;2023-08-06T10:39:19;97219.22;;;19.03
22269;BMP280;11303;50.772;19.670;2023-08-06T10:41:32;97278.13;;;18.96
22269;BMP280;11303;50.772;19.670;2023-08-06T10:43:37;97257.34;;;18.89
22269;BMP280;11303;50.772;19.670;2023-08-06T10:45:49;97219.19;;;18.85
22269;BMP280;11303;50.772;19.670;2023-08-06T10:47:51;97213.75;;;18.88
22269;BMP280;11303;50.772;19.670;2023-08-06T10:49:53;97213.72;;;18.79
22269;BMP280;11303;50.772;19.670;2023-08-06T10:51:55;97207.38;;;18.67
22269;BMP280;11303;50.772;19.670;2023-08-06T10:53:57;97190.44;;;18.68
22269;BMP280;11303;50.772;19.670;2023-08-06T10:56:00;97177.94;;;18.50
22269;BMP280;11303;50.772;19.670;2023-08-06T10:58:02;97194.44;;;18.42
22269;BMP280;11303;50.772;19.670;2023-08-06T11:00:04;97188.56;;;18.37
22269;BMP280;11303;50.772;19.670;2023-08-06T11:02:17;97188.50;;;18.28
22269;BMP280;11303;50.772;19.670;2023-08-06T11:04:19;97187.03;;;18.18
22269;BMP280;11303;50.772;19.670;2023-08-06T11:06:22;97187.34;;;17.98
22269;BMP280;11303;50.772;19.670;2023-08-06T11:08:28;97273.88;;;17.92
22269;BMP280;11303;50.772;19.670;2023-08-06T11:10:33;97237.69;;;17.96
22269;BMP280;11303;50.772;19.670;2023-08-06T11:12:35;97220.38;;;18.08
22269;BMP280;11303;50.772;19.670;2023-08-06T11:14:37;97208.38;;;18.29
22269;BMP280;11303;50.772;19.670;2023-08-06T11:16:40;97215.56;;;18.60
22269;BMP280;11303;50.772;19.670;2023-08-06T11:18:42;97218.78;;;18.64
22269;BMP280;11303;50.772;19.670;2023-08-06T11:20:44;97205.72;;;18.51
22269;BMP280;11303;50.772;19.670;2023-08-06T11:22:46;97206.81;;;18.32
22269;BMP280;11303;50.772;19.670;2023-08-06T11:24:48;97193.75;;;18.28
22269;BMP280;11303;50.772;19.670;2023-08-06T11:26:50;97198.94;;;18.32
22269;BMP280;11303;50.772;19.670;2023-08-06T11:28:52;97191.50;;;18.39
22269;BMP280;11303;50.772;19.670;2023-08-06T11:30:54;97186.09;;;18.43
22269;BMP280;11303;50.772;19.670;2023-08-06T11:32:58;97173.72;;;18.53
22269;BMP280;11303;50.772;19.670;2023-08-06T11:35:09;97166.31;;;18.60
22269;BMP280;11303;50.772;19.670;2023-08-06T11:37:11;97163.63;;;18.51
22269;BMP280;11303;50.772;19.670;2023-08-06T11:39:13;97161.56;;;18.46
22269;BMP280;11303;50.772;19.670;2023-08-06T11:41:15;97165.81;;;18.53
22269;BMP280;11303;50.772;19.670;2023-08-06T11:43:19;97164.66;;;18.54
22269;BMP280;11303;50.772;19.670;2023-08-06T11:45:26;97190.22;;;18.53
22269;BMP280;11303;50.772;19.670;2023-08-06T11:47:28;97192.72;;;18.57
22269;BMP280;11303;50.772;19.670;2023-08-06T11:49:39;97212.94;;;18.60
22269;BMP280;11303;50.772;19.670;2023-08-06T11:51:47;97236.34;;;18.36
22269;BMP280;11303;50.772;19.670;2023-08-06T11:53:49;97233.28;;;18.15
22269;BMP280;11303;50.772;19.670;2023-08-06T11:55:51;97215.69;;;18.03
22269;BMP280;11303;50.772;19.670;2023-08-06T11:57:54;97231.22;;;18.10
22269;BMP280;11303;50.772;19.670;2023-08-06T11:59:56;97231.69;;;17.96
22269;BMP280;11303;50.772;19.670;2023-08-06T12:02:01;97257.50;;;17.75
22269;BMP280;11303;50.772;19.670;2023-08-06T12:04:04;97238.44;;;17.49
22269;BMP280;11303;50.772;19.670;2023-08-06T12:06:08;97289.22;;;17.33
22269;BMP280;11303;50.772;19.670;2023-08-06T12:08:10;97277.53;;;17.34
22269;BMP280;11303;50.772;19.670;2023-08-06T12:10:13;97313.69;;;17.30
22269;BMP280;11303;50.772;19.670;2023-08-06T12:12:15;97305.81;;;17.30
22269;BMP280;11303;50.772;19.670;2023-08-06T12:14:17;97285.63;;;17.40
22269;BMP280;11303;50.772;19.670;2023-08-06T12:16:19;97277.41;;;17.64
22269;BMP280;11303;50.772;19.670;2023-08-06T12:18:23;97285.53;;;17.91
22269;BMP280;11303;50.772;19.670;2023-08-06T12:20:25;97283.25;;;18.15
22269;BMP280;11303;50.772;19.670;2023-08-06T12:22:26;97272.97;;;18.08
22269;BMP280;11303;50.772;19.670;2023-08-06T12:24:29;97285.81;;;18.06
22269;BMP280;11303;50.772;19.670;2023-08-06T12:26:33;97294.63;;;18.12
22269;BMP280;11303;50.772;19.670;2023-08-06T12:28:34;97297.19;;;18.25
22269;BMP280;11303;50.772;19.670;2023-08-06T12:30:36;97294.97;;;18.46
22269;BMP280;11303;50.772;19.670;2023-08-06T12:32:38;97297.38;;;18.84
22269;BMP280;11303;50.772;19.670;2023-08-06T12:34:41;97307.75;;;19.19
22269;BMP280;11303;50.772;19.670;2023-08-06T12:36:53;97298.16;;;19.43
22269;BMP280;11303;50.772;19.670;2023-08-06T12:38:55;97305.50;;;19.49
22269;BMP280;11303;50.772;19.670;2023-08-06T12:40:56;97301.09;;;19.55
22269;BMP280;11303;50.772;19.670;2023-08-06T12:42:58;97296.13;;;19.38
22269;BMP280;11303;50.772;19.670;2023-08-06T12:45:01;97294.44;;;19.22
22269;BMP280;11303;50.772;19.670;2023-08-06T12:47:02;97294.75;;;19.25
22269;BMP280;11303;50.772;19.670;2023-08-06T12:49:04;97298.75;;;18.98
22269;BMP280;11303;50.772;19.670;2023-08-06T12:51:06;97302.16;;;18.76
22269;BMP280;11303;50.772;19.670;2023-08-06T12:53:07;97299.50;;;18.45
22269;BMP280;11303;50.772;19.670;2023-08-06T12:55:09;97303.50;;;18.28
22269;BMP280;11303;50.772;19.670;2023-08-06T12:57:11;97311.28;;;17.96
22269;BMP280;11303;50.772;19.670;2023-08-06T12:59:16;97308.19;;;17.63
22269;BMP280;11303;50.772;19.670;2023-08-06T13:01:18;97312.19;;;17.29
22269;BMP280;11303;50.772;19.670;2023-08-06T13:03:22;97303.47;;;16.94
22269;BMP280;11303;50.772;19.670;2023-08-06T13:05:24;97315.19;;;16.77
22269;BMP280;11303;50.772;19.670;2023-08-06T13:07:25;97315.28;;;16.73
22269;BMP280;11303;50.772;19.670;2023-08-06T13:09:27;97320.41;;;16.64
22269;BMP280;11303;50.772;19.670;2023-08-06T13:11:36;97322.69;;;16.62
22269;BMP280;11303;50.772;19.670;2023-08-06T13:13:39;97325.53;;;16.55
22269;BMP280;11303;50.772;19.670;2023-08-06T13:15:41;97335.38;;;16.50
22269;BMP280;11303;50.772;19.670;2023-08-06T13:17:43;97364.06;;;16.41
22269;BMP280;11303;50.772;19.670;2023-08-06T13:19:44;97366.53;;;16.32
22269;BMP280;11303;50.772;19.670;2023-08-06T13:23:48;97477.44;;;15.96
22269;BMP280;11303;50.772;19.670;2023-08-06T13:25:50;97473.81;;;15.90
22269;BMP280;11303;50.772;19.670;2023-08-06T13:27:51;97449.16;;;15.87
22269;BMP280;11303;50.772;19.670;2023-08-06T13:29:53;97453.09;;;15.79
22269;BMP280;11303;50.772;19.670;2023-08-06T13:31:55;97446.75;;;15.77
22269;BMP280;11303;50.772;19.670;2023-08-06T13:33:57;97443.81;;;15.75
22269;BMP280;11303;50.772;19.670;2023-08-06T13:36:02;97438.66;;;15.71
22269;BMP280;11303;50.772;19.670;2023-08-06T13:38:03;97429.25;;;15.74
22269;BMP280;11303;50.772;19.670;2023-08-06T13:40:06;97440.28;;;15.65
22269;BMP280;11303;50.772;19.670;2023-08-06T13:42:08;97437.38;;;15.59
22269;BMP280;11303;50.772;19.670;2023-08-06T13:44:10;97433.56;;;15.44
22269;BMP280;11303;50.772;19.670;2023-08-06T13:46:12;97425.44;;;15.38
22269;BMP280;11303;50.772;19.670;2023-08-06T13:48:17;97428.81;;;15.39
22269;BMP280;11303;50.772;19.670;2023-08-06T13:50:19;97429.28;;;15.34
22269;BMP280;11303;50.772;19.670;2023-08-06T13:52:27;97429.75;;;15.28
22269;BMP280;11303;50.772;19.670;2023-08-06T13:54:29;97424.81;;;15.34
22269;BMP280;11303;50.772;19.670;2023-08-06T13:56:32;97421.22;;;15.44
22269;BMP280;11303;50.772;19.670;2023-08-06T13:58:34;97427.25;;;15.61
22269;BMP280;11303;50.772;19.670;2023-08-06T14:00:36;97432.44;;;15.81
22269;BMP280;11303;50.772;19.670;2023-08-06T14:02:37;97439.25;;;15.95
22269;BMP280;11303;50.772;19.670;2023-08-06T14:04:39;97441.38;;;16.00
22269;BMP280;11303;50.772;19.670;2023-08-06T14:06:41;97442.47;;;16.03
22269;BMP280;11303;50.772;19.670;2023-08-06T14:08:43;97443.19;;;16.03
22269;BMP280;11303;50.772;19.670;2023-08-06T14:10:45;97447.16;;;16.12
22269;BMP280;11303;50.772;19.670;2023-08-06T14:12:47;97459.03;;;16.16
22269;BMP280;11303;50.772;19.670;2023-08-06T14:15:06;97455.25;;;16.01
22269;BMP280;11303;50.772;19.670;2023-08-06T14:17:07;97462.03;;;15.98
22269;BMP280;11303;50.772;19.670;2023-08-06T14:19:09;97449.06;;;15.91
22269;BMP280;11303;50.772;19.670;2023-08-06T14:21:11;97467.34;;;15.95
22269;BMP280;11303;50.772;19.670;2023-08-06T14:23:12;97468.81;;;15.96
22269;BMP280;11303;50.772;19.670;2023-08-06T14:25:14;97466.13;;;15.99
22269;BMP280;11303;50.772;19.670;2023-08-06T14:27:16;97462.34;;;16.00
22269;BMP280;11303;50.772;19.670;2023-08-06T14:29:21;97465.53;;;16.08
22269;BMP280;11303;50.772;19.670;2023-08-06T14:31:22;97460.72;;;16.06
22269;BMP280;11303;50.772;19.670;2023-08-06T14:33:24;97463.50;;;15.99
22269;BMP280;11303;50.772;19.670;2023-08-06T14:35:28;97460.34;;;15.88
22269;BMP280;11303;50.772;19.670;2023-08-06T14:37:30;97462.75;;;15.82
22269;BMP280;11303;50.772;19.670;2023-08-06T14:39:31;97465.75;;;15.81
22269;BMP280;11303;50.772;19.670;2023-08-06T14:41:33;97462.25;;;15.87
22269;BMP280;11303;50.772;19.670;2023-08-06T14:43:35;97458.88;;;16.07
22269;BMP280;11303;50.772;19.670;2023-08-06T14:45:38;97465.75;;;16.34
22269;BMP280;11303;50.772;19.670;2023-08-06T14:47:40;97470.19;;;16.53
22269;BMP280;11303;50.772;19.670;2023-08-06T14:49:42;97467.31;;;16.64
22269;BMP280;11303;50.772;19.670;2023-08-06T14:51:44;97448.44;;;16.52
22269;BMP280;11303;50.772;19.670;2023-08-06T14:53:46;97453.47;;;16.47
22269;BMP280;11303;50.772;19.670;2023-08-06T14:55:48;97445.09;;;16.36
22269;BMP280;11303;50.772;19.670;2023-08-06T14:57:49;97443.69;;;16.47
22269;BMP280;11303;50.772;19.670;2023-08-06T14:59:51;97444.78;;;16.50
22269;BMP280;11303;50.772;19.670;2023-08-06T15:01:53;97439.09;;;16.51
22269;BMP280;11303;50.772;19.670;2023-08-06T15:03:55;97442.88;;;16.34
22269;BMP280;11303;50.772;19.670;2023-08-06T15:05:57;97430.03;;;16.23
22269;BMP280;11303;50.772;19.670;2023-08-06T15:07:59;97433.72;;;16.26
22269;BMP280;11303;50.772;19.670;2023-08-06T15:10:01;97424.56;;;16.18
22269;BMP280;11303;50.772;19.670;2023-08-06T15:12:07;97430.69;;;16.27
22269;BMP280;11303;50.772;19.670;2023-08-06T15:14:08;97421.22;;;16.63
22269;BMP280;11303;50.772;19.670;2023-08-06T15:16:10;97422.78;;;16.77
22269;BMP280;11303;50.772;19.670;2023-08-06T15:18:12;97434.66;;;16.94
22269;BMP280;11303;50.772;19.670;2023-08-06T15:20:13;97436.41;;;17.01
22269;BMP280;11303;50.772;19.670;2023-08-06T15:22:15;97430.66;;;16.89
22269;BMP280;11303;50.772;19.670;2023-08-06T15:24:17;97437.22;;;16.68
22269;BMP280;11303;50.772;19.670;2023-08-06T15:26:18;97441.22;;;16.57
22269;BMP280;11303;50.772;19.670;2023-08-06T15:28:21;97459.59;;;16.57
22269;BMP280;11303;50.772;19.670;2023-08-06T15:30:23;97492.16;;;16.59
22269;BMP280;11303;50.772;19.670;2023-08-06T15:32:24;97512.03;;;16.40
22269;BMP280;11303;50.772;19.670;2023-08-06T15:34:27;97514.47;;;16.15
22269;BMP280;11303;50.772;19.670;2023-08-06T15:36:29;97523.78;;;15.99
22269;BMP280;11303;50.772;19.670;2023-08-06T15:38:31;97525.88;;;15.88
22269;BMP280;11303;50.772;19.670;2023-08-06T15:40:32;97506.59;;;15.78
22269;BMP280;11303;50.772;19.670;2023-08-06T15:42:34;97513.41;;;15.76
22269;BMP280;11303;50.772;19.670;2023-08-06T15:44:36;97501.63;;;15.64
22269;BMP280;11303;50.772;19.670;2023-08-06T15:46:37;97504.75;;;15.59
22269;BMP280;11303;50.772;19.670;2023-08-06T15:48:39;97510.72;;;15.59
22269;BMP280;11303;50.772;19.670;2023-08-06T15:50:41;97502.13;;;15.59
22269;BMP280;11303;50.772;19.670;2023-08-06T15:52:46;97494.66;;;15.57
22269;BMP280;11303;50.772;19.670;2023-08-06T15:54:48;97498.00;;;15.58
22269;BMP280;11303;50.772;19.670;2023-08-06T15:56:49;97501.38;;;15.58
22269;BMP280;11303;50.772;19.670;2023-08-06T15:58:51;97510.31;;;15.61
22269;BMP280;11303;50.772;19.670;2023-08-06T16:00:52;97520.41;;;15.62
22269;BMP280;11303;50.772;19.670;2023-08-06T16:02:54;97529.72;;;15.63
22269;BMP280;11303;50.772;19.670;2023-08-06T16:04:59;97529.78;;;15.60
22269;BMP280;11303;50.772;19.670;2023-08-06T16:07:05;97533.94;;;15.57
22269;BMP280;11303;50.772;19.670;2023-08-06T16:09:07;97535.41;;;15.58
22269;BMP280;11303;50.772;19.670;2023-08-06T16:11:09;97541.06;;;15.57
22269;BMP280;11303;50.772;19.670;2023-08-06T16:13:11;97538.44;;;15.57
22269;BMP280;11303;50.772;19.670;2023-08-06T16:15:13;97538.44;;;15.57
22269;BMP280;11303;50.772;19.670;2023-08-06T16:17:20;97548.09;;;15.60
22269;BMP280;11303;50.772;19.670;2023-08-06T16:19:24;97550.66;;;15.63
22269;BMP280;11303;50.772;19.670;2023-08-06T16:21:25;97553.72;;;15.58
22269;BMP280;11303;50.772;19.670;2023-08-06T16:23:27;97551.53;;;15.57
22269;BMP280;11303;50.772;19.670;2023-08-06T16:25:29;97539.50;;;15.59
22269;BMP280;11303;50.772;19.670;2023-08-06T16:27:30;97522.31;;;15.58
22269;BMP280;11303;50.772;19.670;2023-08-06T16:29:33;97522.06;;;15.53
22269;BMP280;11303;50.772;19.670;2023-08-06T16:31:34;97522.59;;;15.44
22269;BMP280;11303;50.772;19.670;2023-08-06T16:33:36;97518.63;;;15.36
22269;BMP280;11303;50.772;19.670;2023-08-06T16:35:41;97528.13;;;15.26
22269;BMP280;11303;50.772;19.670;2023-08-06T16:37:45;97526.72;;;15.21
22269;BMP280;11303;50.772;19.670;2023-08-06T16:39:48;97531.94;;;15.21
22269;BMP280;11303;50.772;19.670;2023-08-06T16:41:51;97524.84;;;15.22
22269;BMP280;11303;50.772;19.670;2023-08-06T16:43:52;97529.38;;;15.18
22269;BMP280;11303;50.772;19.670;2023-08-06T16:45:54;97527.25;;;15.13
22269;BMP280;11303;50.772;19.670;2023-08-06T16:47:56;97534.69;;;15.14
22269;BMP280;11303;50.772;19.670;2023-08-06T16:49:57;97533.53;;;15.15
22269;BMP280;11303;50.772;19.670;2023-08-06T16:51:59;97542.47;;;15.18
22269;BMP280;11303;50.772;19.670;2023-08-06T16:54:01;97549.16;;;15.22
22269;BMP280;11303;50.772;19.670;2023-08-06T16:56:03;97550.56;;;15.27
22269;BMP280;11303;50.772;19.670;2023-08-06T16:58:04;97551.81;;;15.19
22269;BMP280;11303;50.772;19.670;2023-08-06T17:00:06;97549.94;;;15.19
22269;BMP280;11303;50.772;19.670;2023-08-06T17:02:08;97542.75;;;15.23
22269;BMP280;11303;50.772;19.670;2023-08-06T17:04:10;97546.44;;;15.26
22269;BMP280;11303;50.772;19.670;2023-08-06T17:06:13;97558.72;;;15.29
22269;BMP280;11303;50.772;19.670;2023-08-06T17:08:16;97556.47;;;15.31
22269;BMP280;11303;50.772;19.670;2023-08-06T17:10:18;97563.22;;;15.28
22269;BMP280;11303;50.772;19.670;2023-08-06T17:12:21;97563.31;;;15.25
22269;BMP280;11303;50.772;19.670;2023-08-06T17:14:23;97560.69;;;15.25
22269;BMP280;11303;50.772;19.670;2023-08-06T17:16:25;97560.69;;;15.25
22269;BMP280;11303;50.772;19.670;2023-08-06T17:18:27;97549.47;;;15.24
22269;BMP280;11303;50.772;19.670;2023-08-06T17:20:29;97558.81;;;15.25
22269;BMP280;11303;50.772;19.670;2023-08-06T17:22:32;97549.47;;;15.24
22269;BMP280;11303;50.772;19.670;2023-08-06T17:24:34;97546.13;;;15.24
22269;BMP280;11303;50.772;19.670;2023-08-06T17:26:36;97544.22;;;15.24
22269;BMP280;11303;50.772;19.670;2023-08-06T17:28:38;97558.13;;;15.21
22269;BMP280;11303;50.772;19.670;2023-08-06T17:30:41;97557.44;;;15.17
22269;BMP280;11303;50.772;19.670;2023-08-06T17:32:42;97557.50;;;15.14
22269;BMP280;11303;50.772;19.670;2023-08-06T17:34:45;97561.31;;;15.09
22269;BMP280;11303;50.772;19.670;2023-08-06T17:36:46;97577.13;;;15.02
22269;BMP280;11303;50.772;19.670;2023-08-06T17:38:48;97584.34;;;14.94
22269;BMP280;11303;50.772;19.670;2023-08-06T17:40:53;97596.00;;;14.90
22269;BMP280;11303;50.772;19.670;2023-08-06T17:42:55;97593.78;;;14.88
22269;BMP280;11303;50.772;19.670;2023-08-06T17:44:58;97589.28;;;14.88
22269;BMP280;11303;50.772;19.670;2023-08-06T17:46:59;97587.47;;;14.85
22269;BMP280;11303;50.772;19.670;2023-08-06T17:49:02;97584.84;;;14.85
22269;BMP280;11303;50.772;19.670;2023-08-06T17:51:03;97591.19;;;14.84
22269;BMP280;11303;50.772;19.670;2023-08-06T17:53:05;97586.03;;;14.81
22269;BMP280;11303;50.772;19.670;2023-08-06T17:55:07;97590.84;;;14.82
22269;BMP280;11303;50.772;19.670;2023-08-06T17:57:09;97583.81;;;14.79
22269;BMP280;11303;50.772;19.670;2023-08-06T17:59:11;97575.28;;;14.75
22269;BMP280;11303;50.772;19.670;2023-08-06T18:01:12;97578.28;;;14.74
22269;BMP280;11303;50.772;19.670;2023-08-06T18:03:14;97579.81;;;14.71
22269;BMP280;11303;50.772;19.670;2023-08-06T18:05:18;97576.88;;;14.65
22269;BMP280;11303;50.772;19.670;2023-08-06T18:07:20;97572.84;;;14.61
22269;BMP280;11303;50.772;19.670;2023-08-06T18:09:22;97572.16;;;14.57
22269;BMP280;11303;50.772;19.670;2023-08-06T18:11:23;97571.13;;;14.51
22269;BMP280;11303;50.772;19.670;2023-08-06T18:13:25;97565.94;;;14.47
22269;BMP280;11303;50.772;19.670;2023-08-06T18:15:27;97580.56;;;14.44
22269;BMP280;11303;50.772;19.670;2023-08-06T18:17:30;97577.63;;;14.39
22269;BMP280;11303;50.772;19.670;2023-08-06T18:19:31;97584.00;;;14.38
22269;BMP280;11303;50.772;19.670;2023-08-06T18:21:33;97593.72;;;14.37
22269;BMP280;11303;50.772;19.670;2023-08-06T18:23:35;97595.97;;;14.35
22269;BMP280;11303;50.772;19.670;2023-08-06T18:25:36;97594.16;;;14.32
22269;BMP280;11303;50.772;19.670;2023-08-06T18:27:38;97591.16;;;14.30
22269;BMP280;11303;50.772;19.670;2023-08-06T18:29:44;97591.94;;;14.27
22269;BMP280;11303;50.772;19.670;2023-08-06T18:31:46;97588.66;;;14.23
22269;BMP280;11303;50.772;19.670;2023-08-06T18:33:48;97598.41;;;14.19
22269;BMP280;11303;50.772;19.670;2023-08-06T18:35:49;97598.41;;;14.19
22269;BMP280;11303;50.772;19.670;2023-08-06T18:37:51;97598.78;;;14.17
22269;BMP280;11303;50.772;19.670;2023-08-06T18:39:53;97610.34;;;14.16
22269;BMP280;11303;50.772;19.670;2023-08-06T18:42:03;97616.34;;;14.17
22269;BMP280;11303;50.772;19.670;2023-08-06T18:44:04;97618.97;;;14.17
22269;BMP280;11303;50.772;19.670;2023-08-06T18:46:06;97615.59;;;14.16
22269;BMP280;11303;50.772;19.670;2023-08-06T18:48:08;97620.06;;;14.16
22269;BMP280;11303;50.772;19.670;2023-08-06T18:50:09;97619.75;;;14.14
22269;BMP280;11303;50.772;19.670;2023-08-06T18:52:12;97620.88;;;14.13
22269;BMP280;11303;50.772;19.670;2023-08-06T18:54:14;97630.25;;;14.06
22269;BMP280;11303;50.772;19.670;2023-08-06T18:56:15;97612.75;;;14.03
22269;BMP280;11303;50.772;19.670;2023-08-06T18:58:17;97625.47;;;14.01
22269;BMP280;11303;50.772;19.670;2023-08-06T19:00:19;97626.25;;;13.98
22269;BMP280;11303;50.772;19.670;2023-08-06T19:02:21;97628.47;;;13.96
22269;BMP280;11303;50.772;19.670;2023-08-06T19:04:22;97627.03;;;13.95
22269;BMP280;11303;50.772;19.670;2023-08-06T19:06:25;97624.03;;;13.93
22269;BMP280;11303;50.772;19.670;2023-08-06T19:08:30;97617.34;;;13.92
22269;BMP280;11303;50.772;19.670;2023-08-06T19:10:33;97620.34;;;13.91
22269;BMP280;11303;50.772;19.670;2023-08-06T19:12:34;97624.47;;;13.88
22269;BMP280;11303;50.772;19.670;2023-08-06T19:14:36;97633.03;;;13.89
22269;BMP280;11303;50.772;19.670;2023-08-06T19:16:38;97630.44;;;13.89
22269;BMP280;11303;50.772;19.670;2023-08-06T19:18:47;97634.94;;;13.88
22269;BMP280;11303;50.772;19.670;2023-08-06T19:20:54;97634.56;;;13.86
22269;BMP280;11303;50.772;19.670;2023-08-06T19:22:57;97643.88;;;13.87
22269;BMP280;11303;50.772;19.670;2023-08-06T19:24:59;97637.91;;;13.86
22269;BMP280;11303;50.772;19.670;2023-08-06T19:27:01;97637.56;;;13.84
22269;BMP280;11303;50.772;19.670;2023-08-06T19:29:05;97641.28;;;13.83
22269;BMP280;11303;50.772;19.670;2023-08-06T19:31:07;97636.06;;;13.83
22269;BMP280;11303;50.772;19.670;2023-08-06T19:33:09;97644.31;;;13.82
22269;BMP280;11303;50.772;19.670;2023-08-06T19:35:12;97642.81;;;13.81
22269;BMP280;11303;50.772;19.670;2023-08-06T19:37:13;97644.31;;;13.82
22269;BMP280;11303;50.772;19.670;2023-08-06T19:39:15;97648.38;;;13.83
22269;BMP280;11303;50.772;19.670;2023-08-06T19:41:17;97647.25;;;13.84
22269;BMP280;11303;50.772;19.670;2023-08-06T19:43:18;97657.69;;;13.84
22269;BMP280;11303;50.772;19.670;2023-08-06T19:45:20;97657.69;;;13.84
22269;BMP280;11303;50.772;19.670;2023-08-06T19:47:22;97654.75;;;13.82
22269;BMP280;11303;50.772;19.670;2023-08-06T19:49:24;97648.03;;;13.81
22269;BMP280;11303;50.772;19.670;2023-08-06T19:51:25;97652.53;;;13.80
22269;BMP280;11303;50.772;19.670;2023-08-06T19:53:28;97643.94;;;13.80
22269;BMP280;11303;50.772;19.670;2023-08-06T19:55:31;97645.41;;;13.81
22269;BMP280;11303;50.772;19.670;2023-08-06T19:57:33;97655.13;;;13.80
22269;BMP280;11303;50.772;19.670;2023-08-06T19:59:34;97650.28;;;13.79
22269;BMP280;11303;50.772;19.670;2023-08-06T20:01:36;97647.31;;;13.77
22269;BMP280;11303;50.772;19.670;2023-08-06T20:03:38;97635.81;;;13.71
22269;BMP280;11303;50.772;19.670;2023-08-06T20:05:44;97640.69;;;13.69
22269;BMP280;11303;50.772;19.670;2023-08-06T20:07:46;97631.75;;;13.66
22269;BMP280;11303;50.772;19.670;2023-08-06T20:09:48;97634.75;;;13.64
22269;BMP280;11303;50.772;19.670;2023-08-06T20:11:49;97636.22;;;13.65
22269;BMP280;11303;50.772;19.670;2023-08-06T20:13:51;97634.38;;;13.66
22269;BMP280;11303;50.772;19.670;2023-08-06T20:15:53;97638.81;;;13.65
22269;BMP280;11303;50.772;19.670;2023-08-06T20:17:55;97645.53;;;13.66
22269;BMP280;11303;50.772;19.670;2023-08-06T20:19:56;97639.22;;;13.64
22269;BMP280;11303;50.772;19.670;2023-08-06T20:21:58;97648.53;;;13.65
22269;BMP280;11303;50.772;19.670;2023-08-06T20:24:00;97652.66;;;13.62
22269;BMP280;11303;50.772;19.670;2023-08-06T20:26:01;97658.66;;;13.63
22269;BMP280;11303;50.772;19.670;2023-08-06T20:28:03;97653.03;;;13.61
22269;BMP280;11303;50.772;19.670;2023-08-06T20:30:05;97658.25;;;13.61
22269;BMP280;11303;50.772;19.670;2023-08-06T20:32:07;97663.13;;;13.59
22269;BMP280;11303;50.772;19.670;2023-08-06T20:34:09;97651.94;;;13.58
22269;BMP280;11303;50.772;19.670;2023-08-06T20:36:11;97656.81;;;13.56
22269;BMP280;11303;50.772;19.670;2023-08-06T20:38:13;97656.09;;;13.56
22269;BMP280;11303;50.772;19.670;2023-08-06T20:40:14;97658.72;;;13.52
22269;BMP280;11303;50.772;19.670;2023-08-06T20:42:16;97656.47;;;13.51
22269;BMP280;11303;50.772;19.670;2023-08-06T20:44:17;97664.72;;;13.49
22269;BMP280;11303;50.772;19.670;2023-08-06T20:46:19;97664.72;;;13.49
22269;BMP280;11303;50.772;19.670;2023-08-06T20:48:22;97667.66;;;13.51
22269;BMP280;11303;50.772;19.670;2023-08-06T20:50:23;97668.00;;;13.53
22269;BMP280;11303;50.772;19.670;2023-08-06T20:52:26;97663.94;;;13.52
22269;BMP280;11303;50.772;19.670;2023-08-06T20:54:27;97662.78;;;13.53
22269;BMP280;11303;50.772;19.670;2023-08-06T20:56:29;97669.91;;;13.53
22269;BMP280;11303;50.772;19.670;2023-08-06T20:58:31;97656.47;;;13.51
22269;BMP280;11303;50.772;19.670;2023-08-06T21:00:33;97660.97;;;13.50
22269;BMP280;11303;50.772;19.670;2023-08-06T21:02:34;97662.50;;;13.48
22269;BMP280;11303;50.772;19.670;2023-08-06T21:04:36;97658.38;;;13.46
22269;BMP280;11303;50.772;19.670;2023-08-06T21:06:38;97666.22;;;13.46
22269;BMP280;11303;50.772;19.670;2023-08-06T21:08:39;97663.22;;;13.48
22269;BMP280;11303;50.772;19.670;2023-08-06T21:10:41;97657.25;;;13.48
22269;BMP280;11303;50.772;19.670;2023-08-06T21:12:43;97642.72;;;13.46
22269;BMP280;11303;50.772;19.670;2023-08-06T21:14:45;97636.06;;;13.42
22269;BMP280;11303;50.772;19.670;2023-08-06T21:16:46;97633.47;;;13.35
22269;BMP280;11303;50.772;19.670;2023-08-06T21:18:48;97634.66;;;13.26
22269;BMP280;11303;50.772;19.670;2023-08-06T21:20:53;97634.69;;;13.19
22269;BMP280;11303;50.772;19.670;2023-08-06T21:22:55;97627.25;;;13.18
22269;BMP280;11303;50.772;19.670;2023-08-06T21:24:56;97623.56;;;13.15
22269;BMP280;11303;50.772;19.670;2023-08-06T21:26:58;97631.78;;;13.14
22269;BMP280;11303;50.772;19.670;2023-08-06T21:29:00;97640.31;;;13.14
22269;BMP280;11303;50.772;19.670;2023-08-06T21:31:04;97618.72;;;13.14
22269;BMP280;11303;50.772;19.670;2023-08-06T21:33:05;97629.19;;;13.10
22269;BMP280;11303;50.772;19.670;2023-08-06T21:35:07;97640.00;;;13.05
22269;BMP280;11303;50.772;19.670;2023-08-06T21:37:12;97641.91;;;13.01
22269;BMP280;11303;50.772;19.670;2023-08-06T21:39:13;97637.09;;;12.96
22269;BMP280;11303;50.772;19.670;2023-08-06T21:41:15;97640.78;;;12.98
22269;BMP280;11303;50.772;19.670;2023-08-06T21:43:17;97646.41;;;12.97
22269;BMP280;11303;50.772;19.670;2023-08-06T21:45:19;97652.00;;;12.95
22269;BMP280;11303;50.772;19.670;2023-08-06T21:47:20;97661.31;;;12.93
22269;BMP280;11303;50.772;19.670;2023-08-06T21:49:22;97660.19;;;12.94
22269;BMP280;11303;50.772;19.670;2023-08-06T21:51:25;97658.69;;;12.93
22269;BMP280;11303;50.772;19.670;2023-08-06T21:53:29;97654.63;;;12.92